sensor_id;sensor_type;location;lat;lon;timestamp;P1;durP1;ratioP1;P2;durP2;ratioP2
8564;SDS011;4320;51.498;6.556;2024-01-11T00:01:34;37.77;;;19.33;;
8564;SDS011;4320;51.498;6.556;2024-01-11T00:03:59;33.87;;;18.33;;
8564;SDS011;4320;51.498;6.556;2024-01-11T00:06:25;34.90;;;19.13;;
8564;SDS011;4320;51.498;6.556;2024-01-11T00:08:50;33.27;;;19.07;;
8564;SDS011;4320;51.498;6.556;2024-01-11T00:11:16;35.77;;;19.60;;
8564;SDS011;4320;51.498;6.556;2024-01-11T00:13:42;37.27;;;20.70;;
8564;SDS011;4320;51.498;6.556;2024-01-11T00:16:07;37.43;;;20.03;;
8564;SDS011;4320;51.498;6.556;2024-01-11T00:18:33;38.93;;;19.73;;
8564;SDS011;4320;51.498;6.556;2024-01-11T00:20:58;37.47;;;19.73;;
8564;SDS011;4320;51.498;6.556;2024-01-11T00:23:24;33.60;;;19.67;;
8564;SDS011;4320;51.498;6.556;2024-01-11T00:25:49;39.93;;;20.67;;
8564;SDS011;4320;51.498;6.556;2024-01-11T00:28:15;40.30;;;20.30;;
8564;SDS011;4320;51.498;6.556;2024-01-11T00:30:40;39.73;;;20.73;;
8564;SDS011;4320;51.498;6.556;2024-01-11T00:33:06;38.60;;;20.23;;
8564;SDS011;4320;51.498;6.556;2024-01-11T00:35:32;39.07;;;19.40;;
8564;SDS011;4320;51.498;6.556;2024-01-11T00:37:57;38.73;;;20.47;;
8564;SDS011;4320;51.498;6.556;2024-01-11T00:40:23;37.37;;;20.30;;
8564;SDS011;4320;51.498;6.556;2024-01-11T00:42:48;39.70;;;20.23;;
8564;SDS011;4320;51.498;6.556;2024-01-11T00:45:14;40.90;;;20.07;;
8564;SDS011;4320;51.498;6.556;2024-01-11T00:47:40;38.63;;;21.27;;
8564;SDS011;4320;51.498;6.556;2024-01-11T00:50:05;34.70;;;18.63;;
8564;SDS011;4320;51.498;6.556;2024-01-11T00:52:32;42.47;;;21.20;;
8564;SDS011;4320;51.498;6.556;2024-01-11T00:54:57;39.43;;;20.17;;
8564;SDS011;4320;51.498;6.556;2024-01-11T00:57:23;34.30;;;19.07;;
8564;SDS011;4320;51.498;6.556;2024-01-11T00:59:48;34.43;;;19.13;;
8564;SDS011;4320;51.498;6.556;2024-01-11T01:02:14;38.53;;;19.87;;
8564;SDS011;4320;51.498;6.556;2024-01-11T01:04:40;34.43;;;19.07;;
8564;SDS011;4320;51.498;6.556;2024-01-11T01:07:05;36.87;;;20.17;;
8564;SDS011;4320;51.498;6.556;2024-01-11T01:09:31;41.20;;;21.93;;
8564;SDS011;4320;51.498;6.556;2024-01-11T01:11:57;35.83;;;19.23;;
8564;SDS011;4320;51.498;6.556;2024-01-11T01:14:22;37.17;;;20.50;;
8564;SDS011;4320;51.498;6.556;2024-01-11T01:16:48;38.83;;;20.80;;
8564;SDS011;4320;51.498;6.556;2024-01-11T01:19:13;40.37;;;20.13;;
8564;SDS011;4320;51.498;6.556;2024-01-11T01:21:39;40.57;;;20.87;;
8564;SDS011;4320;51.498;6.556;2024-01-11T01:24:05;38.37;;;19.43;;
8564;SDS011;4320;51.498;6.556;2024-01-11T01:26:31;41.53;;;21.90;;
8564;SDS011;4320;51.498;6.556;2024-01-11T01:28:56;38.60;;;20.73;;
8564;SDS011;4320;51.498;6.556;2024-01-11T01:31:22;40.23;;;20.63;;
8564;SDS011;4320;51.498;6.556;2024-01-11T01:33:47;41.03;;;21.03;;
8564;SDS011;4320;51.498;6.556;2024-01-11T01:36:13;41.70;;;21.27;;
8564;SDS011;4320;51.498;6.556;2024-01-11T01:38:39;38.53;;;21.03;;
8564;SDS011;4320;51.498;6.556;2024-01-11T01:41:04;37.17;;;19.80;;
8564;SDS011;4320;51.498;6.556;2024-01-11T01:43:30;41.07;;;20.33;;
8564;SDS011;4320;51.498;6.556;2024-01-11T01:45:55;38.60;;;20.50;;
8564;SDS011;4320;51.498;6.556;2024-01-11T01:48:22;40.63;;;21.97;;
8564;SDS011;4320;51.498;6.556;2024-01-11T01:50:48;37.07;;;20.67;;
8564;SDS011;4320;51.498;6.556;2024-01-11T01:53:19;38.10;;;19.73;;
8564;SDS011;4320;51.498;6.556;2024-01-11T01:55:46;35.70;;;19.60;;
8564;SDS011;4320;51.498;6.556;2024-01-11T01:58:13;41.53;;;20.40;;
8564;SDS011;4320;51.498;6.556;2024-01-11T02:00:39;37.10;;;20.60;;
8564;SDS011;4320;51.498;6.556;2024-01-11T02:03:06;38.03;;;19.97;;
8564;SDS011;4320;51.498;6.556;2024-01-11T02:05:33;36.10;;;19.10;;
8564;SDS011;4320;51.498;6.556;2024-01-11T02:07:59;41.77;;;21.63;;
8564;SDS011;4320;51.498;6.556;2024-01-11T02:10:28;35.73;;;19.70;;
8564;SDS011;4320;51.498;6.556;2024-01-11T02:12:57;39.97;;;21.20;;
8564;SDS011;4320;51.498;6.556;2024-01-11T02:15:24;38.03;;;20.40;;
8564;SDS011;4320;51.498;6.556;2024-01-11T02:17:49;35.97;;;20.30;;
8564;SDS011;4320;51.498;6.556;2024-01-11T02:20:15;43.07;;;21.70;;
8564;SDS011;4320;51.498;6.556;2024-01-11T02:22:41;39.00;;;20.93;;
8564;SDS011;4320;51.498;6.556;2024-01-11T02:25:11;39.83;;;21.87;;
8564;SDS011;4320;51.498;6.556;2024-01-11T02:27:49;46.27;;;22.13;;
8564;SDS011;4320;51.498;6.556;2024-01-11T02:30:15;38.40;;;20.17;;
8564;SDS011;4320;51.498;6.556;2024-01-11T02:32:48;37.13;;;21.30;;
8564;SDS011;4320;51.498;6.556;2024-01-11T02:35:15;43.60;;;21.17;;
8564;SDS011;4320;51.498;6.556;2024-01-11T02:37:41;39.83;;;20.97;;
8564;SDS011;4320;51.498;6.556;2024-01-11T02:40:08;42.43;;;21.13;;
8564;SDS011;4320;51.498;6.556;2024-01-11T02:42:34;41.80;;;20.60;;
8564;SDS011;4320;51.498;6.556;2024-01-11T02:45:01;43.73;;;22.73;;
8564;SDS011;4320;51.498;6.556;2024-01-11T02:47:28;43.07;;;21.07;;
8564;SDS011;4320;51.498;6.556;2024-01-11T02:49:54;38.90;;;21.17;;
8564;SDS011;4320;51.498;6.556;2024-01-11T02:52:20;39.17;;;21.27;;
8564;SDS011;4320;51.498;6.556;2024-01-11T02:54:45;43.73;;;22.23;;
8564;SDS011;4320;51.498;6.556;2024-01-11T02:57:11;48.50;;;21.40;;
8564;SDS011;4320;51.498;6.556;2024-01-11T02:59:36;36.80;;;19.67;;
8564;SDS011;4320;51.498;6.556;2024-01-11T03:02:02;44.40;;;22.20;;
8564;SDS011;4320;51.498;6.556;2024-01-11T03:04:28;44.67;;;23.50;;
8564;SDS011;4320;51.498;6.556;2024-01-11T03:06:53;44.90;;;22.33;;
8564;SDS011;4320;51.498;6.556;2024-01-11T03:09:19;40.97;;;22.43;;
8564;SDS011;4320;51.498;6.556;2024-01-11T03:11:44;46.23;;;22.53;;
8564;SDS011;4320;51.498;6.556;2024-01-11T03:14:10;41.70;;;22.07;;
8564;SDS011;4320;51.498;6.556;2024-01-11T03:16:36;37.73;;;21.70;;
8564;SDS011;4320;51.498;6.556;2024-01-11T03:19:02;38.63;;;22.13;;
8564;SDS011;4320;51.498;6.556;2024-01-11T03:21:28;46.60;;;23.37;;
8564;SDS011;4320;51.498;6.556;2024-01-11T03:23:53;45.93;;;25.23;;
8564;SDS011;4320;51.498;6.556;2024-01-11T03:26:19;45.83;;;22.37;;
8564;SDS011;4320;51.498;6.556;2024-01-11T03:28:45;47.73;;;24.10;;
8564;SDS011;4320;51.498;6.556;2024-01-11T03:31:10;50.23;;;25.37;;
8564;SDS011;4320;51.498;6.556;2024-01-11T03:33:36;40.30;;;20.60;;
8564;SDS011;4320;51.498;6.556;2024-01-11T03:36:08;48.77;;;24.10;;
8564;SDS011;4320;51.498;6.556;2024-01-11T03:38:35;41.60;;;23.97;;
8564;SDS011;4320;51.498;6.556;2024-01-11T03:41:01;48.83;;;26.17;;
8564;SDS011;4320;51.498;6.556;2024-01-11T03:43:27;45.50;;;22.30;;
8564;SDS011;4320;51.498;6.556;2024-01-11T03:45:53;42.80;;;21.80;;
8564;SDS011;4320;51.498;6.556;2024-01-11T03:48:18;43.80;;;22.50;;
8564;SDS011;4320;51.498;6.556;2024-01-11T03:50:44;40.27;;;22.17;;
8564;SDS011;4320;51.498;6.556;2024-01-11T03:53:10;43.30;;;21.27;;
8564;SDS011;4320;51.498;6.556;2024-01-11T03:58:32;38.73;;;20.30;;
8564;SDS011;4320;51.498;6.556;2024-01-11T04:00:58;39.10;;;20.47;;
8564;SDS011;4320;51.498;6.556;2024-01-11T04:03:23;44.67;;;20.93;;
8564;SDS011;4320;51.498;6.556;2024-01-11T04:05:49;38.90;;;21.00;;
8564;SDS011;4320;51.498;6.556;2024-01-11T04:08:14;41.13;;;21.13;;
8564;SDS011;4320;51.498;6.556;2024-01-11T04:10:40;39.40;;;20.77;;
8564;SDS011;4320;51.498;6.556;2024-01-11T04:13:06;42.23;;;21.20;;
8564;SDS011;4320;51.498;6.556;2024-01-11T04:15:32;42.30;;;21.17;;
8564;SDS011;4320;51.498;6.556;2024-01-11T04:17:58;38.70;;;20.37;;
8564;SDS011;4320;51.498;6.556;2024-01-11T04:20:23;44.33;;;21.23;;
8564;SDS011;4320;51.498;6.556;2024-01-11T04:22:49;43.17;;;20.23;;
8564;SDS011;4320;51.498;6.556;2024-01-11T04:25:15;42.53;;;22.53;;
8564;SDS011;4320;51.498;6.556;2024-01-11T04:27:41;33.77;;;19.07;;
8564;SDS011;4320;51.498;6.556;2024-01-11T04:30:06;40.83;;;20.50;;
8564;SDS011;4320;51.498;6.556;2024-01-11T04:32:32;40.40;;;21.00;;
8564;SDS011;4320;51.498;6.556;2024-01-11T04:34:58;40.97;;;21.30;;
8564;SDS011;4320;51.498;6.556;2024-01-11T04:37:23;44.27;;;21.43;;
8564;SDS011;4320;51.498;6.556;2024-01-11T04:39:49;41.87;;;20.63;;
8564;SDS011;4320;51.498;6.556;2024-01-11T04:42:14;39.57;;;21.77;;
8564;SDS011;4320;51.498;6.556;2024-01-11T04:44:40;39.40;;;20.30;;
8564;SDS011;4320;51.498;6.556;2024-01-11T04:47:06;43.67;;;21.23;;
8564;SDS011;4320;51.498;6.556;2024-01-11T04:49:33;38.13;;;19.33;;
8564;SDS011;4320;51.498;6.556;2024-01-11T04:51:59;37.17;;;19.30;;
8564;SDS011;4320;51.498;6.556;2024-01-11T04:54:24;42.57;;;21.20;;
8564;SDS011;4320;51.498;6.556;2024-01-11T04:56:50;40.87;;;21.13;;
8564;SDS011;4320;51.498;6.556;2024-01-11T04:59:15;37.53;;;19.97;;
8564;SDS011;4320;51.498;6.556;2024-01-11T05:01:41;35.43;;;18.50;;
8564;SDS011;4320;51.498;6.556;2024-01-11T05:04:07;38.80;;;19.97;;
8564;SDS011;4320;51.498;6.556;2024-01-11T05:06:32;36.43;;;20.37;;
8564;SDS011;4320;51.498;6.556;2024-01-11T05:08:58;41.53;;;19.77;;
8564;SDS011;4320;51.498;6.556;2024-01-11T05:11:23;40.53;;;20.33;;
8564;SDS011;4320;51.498;6.556;2024-01-11T05:13:50;39.77;;;20.70;;
8564;SDS011;4320;51.498;6.556;2024-01-11T05:18:48;39.73;;;20.77;;
8564;SDS011;4320;51.498;6.556;2024-01-11T05:21:15;36.00;;;19.80;;
8564;SDS011;4320;51.498;6.556;2024-01-11T05:23:41;39.10;;;20.03;;
8564;SDS011;4320;51.498;6.556;2024-01-11T05:26:07;35.90;;;20.43;;
8564;SDS011;4320;51.498;6.556;2024-01-11T05:28:34;38.27;;;20.20;;
8564;SDS011;4320;51.498;6.556;2024-01-11T05:30:59;39.73;;;19.67;;
8564;SDS011;4320;51.498;6.556;2024-01-11T05:33:25;38.00;;;19.60;;
8564;SDS011;4320;51.498;6.556;2024-01-11T05:35:51;36.00;;;19.27;;
8564;SDS011;4320;51.498;6.556;2024-01-11T05:38:18;36.67;;;20.50;;
8564;SDS011;4320;51.498;6.556;2024-01-11T05:40:44;37.53;;;19.73;;
8564;SDS011;4320;51.498;6.556;2024-01-11T05:43:10;39.53;;;20.90;;
8564;SDS011;4320;51.498;6.556;2024-01-11T05:45:36;38.57;;;19.37;;
8564;SDS011;4320;51.498;6.556;2024-01-11T05:48:01;38.07;;;19.27;;
8564;SDS011;4320;51.498;6.556;2024-01-11T05:50:27;43.50;;;20.87;;
8564;SDS011;4320;51.498;6.556;2024-01-11T05:52:52;39.50;;;20.13;;
8564;SDS011;4320;51.498;6.556;2024-01-11T05:55:19;34.90;;;19.43;;
8564;SDS011;4320;51.498;6.556;2024-01-11T05:57:45;39.43;;;19.53;;
8564;SDS011;4320;51.498;6.556;2024-01-11T06:00:11;38.93;;;19.93;;
8564;SDS011;4320;51.498;6.556;2024-01-11T06:02:37;37.37;;;18.77;;
8564;SDS011;4320;51.498;6.556;2024-01-11T06:05:02;36.13;;;19.70;;
8564;SDS011;4320;51.498;6.556;2024-01-11T06:07:28;40.80;;;20.50;;
8564;SDS011;4320;51.498;6.556;2024-01-11T06:09:54;33.87;;;19.23;;
8564;SDS011;4320;51.498;6.556;2024-01-11T06:12:19;41.93;;;19.63;;
8564;SDS011;4320;51.498;6.556;2024-01-11T06:14:45;40.50;;;19.80;;
8564;SDS011;4320;51.498;6.556;2024-01-11T06:17:11;41.57;;;19.63;;
8564;SDS011;4320;51.498;6.556;2024-01-11T06:19:37;35.77;;;19.40;;
8564;SDS011;4320;51.498;6.556;2024-01-11T06:22:03;37.67;;;21.03;;
8564;SDS011;4320;51.498;6.556;2024-01-11T06:24:30;38.47;;;20.00;;
8564;SDS011;4320;51.498;6.556;2024-01-11T06:26:55;36.57;;;19.57;;
8564;SDS011;4320;51.498;6.556;2024-01-11T06:29:21;34.07;;;19.23;;
8564;SDS011;4320;51.498;6.556;2024-01-11T06:31:47;39.33;;;19.40;;
8564;SDS011;4320;51.498;6.556;2024-01-11T06:34:12;39.30;;;20.03;;
8564;SDS011;4320;51.498;6.556;2024-01-11T06:36:38;38.93;;;20.93;;
8564;SDS011;4320;51.498;6.556;2024-01-11T06:39:03;39.97;;;19.90;;
8564;SDS011;4320;51.498;6.556;2024-01-11T06:41:29;40.57;;;21.27;;
8564;SDS011;4320;51.498;6.556;2024-01-11T06:43:54;39.00;;;20.47;;
8564;SDS011;4320;51.498;6.556;2024-01-11T06:46:21;43.17;;;21.63;;
8564;SDS011;4320;51.498;6.556;2024-01-11T06:48:49;44.77;;;21.27;;
8564;SDS011;4320;51.498;6.556;2024-01-11T06:51:15;37.33;;;19.03;;
8564;SDS011;4320;51.498;6.556;2024-01-11T06:53:41;38.87;;;20.73;;
8564;SDS011;4320;51.498;6.556;2024-01-11T06:56:17;38.50;;;19.87;;
8564;SDS011;4320;51.498;6.556;2024-01-11T06:58:44;35.97;;;20.33;;
8564;SDS011;4320;51.498;6.556;2024-01-11T07:01:11;42.63;;;19.30;;
8564;SDS011;4320;51.498;6.556;2024-01-11T07:03:37;38.77;;;20.67;;
8564;SDS011;4320;51.498;6.556;2024-01-11T07:06:03;39.27;;;20.03;;
8564;SDS011;4320;51.498;6.556;2024-01-11T07:08:29;38.50;;;20.23;;
8564;SDS011;4320;51.498;6.556;2024-01-11T07:10:55;39.07;;;20.50;;
8564;SDS011;4320;51.498;6.556;2024-01-11T07:13:21;36.73;;;18.70;;
8564;SDS011;4320;51.498;6.556;2024-01-11T07:15:47;48.83;;;20.43;;
8564;SDS011;4320;51.498;6.556;2024-01-11T07:18:13;37.77;;;20.13;;
8564;SDS011;4320;51.498;6.556;2024-01-11T07:20:39;39.97;;;19.47;;
8564;SDS011;4320;51.498;6.556;2024-01-11T07:23:05;39.60;;;20.60;;
8564;SDS011;4320;51.498;6.556;2024-01-11T07:25:31;35.23;;;19.07;;
8564;SDS011;4320;51.498;6.556;2024-01-11T07:27:57;36.77;;;20.40;;
8564;SDS011;4320;51.498;6.556;2024-01-11T07:30:23;39.33;;;19.77;;
8564;SDS011;4320;51.498;6.556;2024-01-11T07:32:49;38.30;;;21.37;;
8564;SDS011;4320;51.498;6.556;2024-01-11T07:35:14;43.70;;;21.57;;
8564;SDS011;4320;51.498;6.556;2024-01-11T07:37:40;38.47;;;20.00;;
8564;SDS011;4320;51.498;6.556;2024-01-11T07:40:06;38.47;;;19.07;;
8564;SDS011;4320;51.498;6.556;2024-01-11T07:42:36;42.17;;;20.70;;
8564;SDS011;4320;51.498;6.556;2024-01-11T07:45:03;38.80;;;20.03;;
8564;SDS011;4320;51.498;6.556;2024-01-11T07:47:30;35.10;;;19.20;;
8564;SDS011;4320;51.498;6.556;2024-01-11T07:49:56;36.97;;;19.77;;
8564;SDS011;4320;51.498;6.556;2024-01-11T07:52:21;35.60;;;18.90;;
8564;SDS011;4320;51.498;6.556;2024-01-11T07:54:47;40.13;;;18.23;;
8564;SDS011;4320;51.498;6.556;2024-01-11T07:57:12;38.93;;;19.20;;
8564;SDS011;4320;51.498;6.556;2024-01-11T07:59:38;42.87;;;22.27;;
8564;SDS011;4320;51.498;6.556;2024-01-11T08:02:04;51.70;;;24.27;;
8564;SDS011;4320;51.498;6.556;2024-01-11T08:04:31;37.77;;;19.93;;
8564;SDS011;4320;51.498;6.556;2024-01-11T08:06:56;40.63;;;21.37;;
8564;SDS011;4320;51.498;6.556;2024-01-11T08:09:24;50.87;;;26.43;;
8564;SDS011;4320;51.498;6.556;2024-01-11T08:11:50;48.90;;;22.33;;
8564;SDS011;4320;51.498;6.556;2024-01-11T08:14:19;43.40;;;21.90;;
8564;SDS011;4320;51.498;6.556;2024-01-11T08:16:45;36.70;;;20.40;;
8564;SDS011;4320;51.498;6.556;2024-01-11T08:19:10;38.93;;;20.83;;
8564;SDS011;4320;51.498;6.556;2024-01-11T08:21:38;36.83;;;19.53;;
8564;SDS011;4320;51.498;6.556;2024-01-11T08:24:04;38.07;;;19.97;;
8564;SDS011;4320;51.498;6.556;2024-01-11T08:26:30;34.20;;;19.60;;
8564;SDS011;4320;51.498;6.556;2024-01-11T08:28:55;34.90;;;19.43;;
8564;SDS011;4320;51.498;6.556;2024-01-11T08:31:21;35.73;;;18.20;;
8564;SDS011;4320;51.498;6.556;2024-01-11T08:33:47;33.37;;;18.93;;
8564;SDS011;4320;51.498;6.556;2024-01-11T08:36:13;73.10;;;21.90;;
8564;SDS011;4320;51.498;6.556;2024-01-11T08:38:39;33.13;;;18.43;;
8564;SDS011;4320;51.498;6.556;2024-01-11T08:41:05;37.87;;;18.47;;
8564;SDS011;4320;51.498;6.556;2024-01-11T08:43:31;37.53;;;18.27;;
8564;SDS011;4320;51.498;6.556;2024-01-11T08:45:57;34.20;;;17.93;;
8564;SDS011;4320;51.498;6.556;2024-01-11T08:48:23;34.47;;;19.33;;
8564;SDS011;4320;51.498;6.556;2024-01-11T08:50:49;37.40;;;18.73;;
8564;SDS011;4320;51.498;6.556;2024-01-11T08:53:14;32.67;;;18.37;;
8564;SDS011;4320;51.498;6.556;2024-01-11T08:55:43;50.90;;;18.77;;
8564;SDS011;4320;51.498;6.556;2024-01-11T08:58:09;35.10;;;18.13;;
8564;SDS011;4320;51.498;6.556;2024-01-11T09:00:36;36.57;;;19.80;;
8564;SDS011;4320;51.498;6.556;2024-01-11T09:03:02;35.13;;;18.60;;
8564;SDS011;4320;51.498;6.556;2024-01-11T09:05:28;30.33;;;17.33;;
8564;SDS011;4320;51.498;6.556;2024-01-11T09:07:54;39.30;;;18.60;;
8564;SDS011;4320;51.498;6.556;2024-01-11T09:10:20;35.33;;;19.40;;
8564;SDS011;4320;51.498;6.556;2024-01-11T09:12:46;33.10;;;18.10;;
8564;SDS011;4320;51.498;6.556;2024-01-11T09:15:11;33.33;;;18.03;;
8564;SDS011;4320;51.498;6.556;2024-01-11T09:17:37;35.27;;;18.57;;
8564;SDS011;4320;51.498;6.556;2024-01-11T09:20:03;38.83;;;18.23;;
8564;SDS011;4320;51.498;6.556;2024-01-11T09:22:30;35.27;;;18.30;;
8564;SDS011;4320;51.498;6.556;2024-01-11T09:24:55;32.00;;;18.47;;
8564;SDS011;4320;51.498;6.556;2024-01-11T09:27:21;31.67;;;17.13;;
8564;SDS011;4320;51.498;6.556;2024-01-11T09:29:47;33.57;;;18.27;;
8564;SDS011;4320;51.498;6.556;2024-01-11T09:32:13;29.47;;;17.73;;
8564;SDS011;4320;51.498;6.556;2024-01-11T09:34:38;34.23;;;18.30;;
8564;SDS011;4320;51.498;6.556;2024-01-11T09:37:04;34.17;;;18.53;;
8564;SDS011;4320;51.498;6.556;2024-01-11T09:39:30;33.93;;;18.37;;
8564;SDS011;4320;51.498;6.556;2024-01-11T09:41:59;35.67;;;18.87;;
8564;SDS011;4320;51.498;6.556;2024-01-11T09:44:31;34.33;;;18.27;;
8564;SDS011;4320;51.498;6.556;2024-01-11T09:46:58;34.03;;;18.17;;
8564;SDS011;4320;51.498;6.556;2024-01-11T09:49:26;33.03;;;18.13;;
8564;SDS011;4320;51.498;6.556;2024-01-11T09:51:55;36.43;;;18.77;;
8564;SDS011;4320;51.498;6.556;2024-01-11T09:54:22;36.93;;;19.80;;
8564;SDS011;4320;51.498;6.556;2024-01-11T09:56:50;33.80;;;18.03;;
8564;SDS011;4320;51.498;6.556;2024-01-11T09:59:19;30.97;;;17.80;;
8564;SDS011;4320;51.498;6.556;2024-01-11T10:01:48;33.40;;;18.50;;
8564;SDS011;4320;51.498;6.556;2024-01-11T10:04:14;30.07;;;17.57;;
8564;SDS011;4320;51.498;6.556;2024-01-11T10:06:41;34.73;;;18.50;;
8564;SDS011;4320;51.498;6.556;2024-01-11T10:09:07;30.67;;;17.97;;
8564;SDS011;4320;51.498;6.556;2024-01-11T10:11:33;35.83;;;19.70;;
8564;SDS011;4320;51.498;6.556;2024-01-11T10:13:59;36.87;;;20.13;;
8564;SDS011;4320;51.498;6.556;2024-01-11T10:16:27;30.60;;;18.57;;
8564;SDS011;4320;51.498;6.556;2024-01-11T10:18:53;30.77;;;19.07;;
8564;SDS011;4320;51.498;6.556;2024-01-11T10:21:20;34.13;;;19.00;;
8564;SDS011;4320;51.498;6.556;2024-01-11T10:23:46;34.07;;;19.43;;
8564;SDS011;4320;51.498;6.556;2024-01-11T10:26:11;31.37;;;18.90;;
8564;SDS011;4320;51.498;6.556;2024-01-11T10:28:42;33.70;;;19.20;;
8564;SDS011;4320;51.498;6.556;2024-01-11T10:31:11;32.53;;;18.43;;
8564;SDS011;4320;51.498;6.556;2024-01-11T10:33:36;31.30;;;18.47;;
8564;SDS011;4320;51.498;6.556;2024-01-11T10:36:02;31.83;;;18.97;;
8564;SDS011;4320;51.498;6.556;2024-01-11T10:38:30;29.90;;;18.30;;
8564;SDS011;4320;51.498;6.556;2024-01-11T10:40:56;30.93;;;18.87;;
8564;SDS011;4320;51.498;6.556;2024-01-11T10:43:26;37.17;;;20.33;;
8564;SDS011;4320;51.498;6.556;2024-01-11T10:45:52;29.53;;;18.87;;
8564;SDS011;4320;51.498;6.556;2024-01-11T10:48:24;42.80;;;26.03;;
8564;SDS011;4320;51.498;6.556;2024-01-11T10:51:00;36.25;;;21.73;;
8564;SDS011;4320;51.498;6.556;2024-01-11T10:53:46;31.08;;;20.55;;
8564;SDS011;4320;51.498;6.556;2024-01-11T10:56:12;28.95;;;19.48;;
8564;SDS011;4320;51.498;6.556;2024-01-11T10:58:40;30.08;;;19.05;;
8564;SDS011;4320;51.498;6.556;2024-01-11T11:01:07;31.83;;;18.90;;
8564;SDS011;4320;51.498;6.556;2024-01-11T11:03:34;29.08;;;20.13;;
8564;SDS011;4320;51.498;6.556;2024-01-11T11:06:01;32.53;;;20.45;;
8564;SDS011;4320;51.498;6.556;2024-01-11T11:08:27;29.25;;;19.63;;
8564;SDS011;4320;51.498;6.556;2024-01-11T11:10:56;30.05;;;20.33;;
8564;SDS011;4320;51.498;6.556;2024-01-11T11:13:23;37.40;;;25.58;;
8564;SDS011;4320;51.498;6.556;2024-01-11T11:15:52;33.45;;;21.95;;
8564;SDS011;4320;51.498;6.556;2024-01-11T11:18:19;30.50;;;18.83;;
8564;SDS011;4320;51.498;6.556;2024-01-11T11:20:46;27.77;;;19.17;;
8564;SDS011;4320;51.498;6.556;2024-01-11T11:23:13;27.30;;;17.77;;
8564;SDS011;4320;51.498;6.556;2024-01-11T11:25:42;30.30;;;17.67;;
8564;SDS011;4320;51.498;6.556;2024-01-11T11:28:11;27.95;;;17.00;;
8564;SDS011;4320;51.498;6.556;2024-01-11T11:30:38;31.27;;;18.77;;
8564;SDS011;4320;51.498;6.556;2024-01-11T11:35:36;25.98;;;17.90;;
8564;SDS011;4320;51.498;6.556;2024-01-11T11:38:02;26.55;;;16.80;;
8564;SDS011;4320;51.498;6.556;2024-01-11T11:40:36;27.90;;;16.20;;
8564;SDS011;4320;51.498;6.556;2024-01-11T11:43:05;23.48;;;15.27;;
8564;SDS011;4320;51.498;6.556;2024-01-11T11:45:31;27.48;;;16.88;;
8564;SDS011;4320;51.498;6.556;2024-01-11T11:47:57;24.05;;;15.77;;
8564;SDS011;4320;51.498;6.556;2024-01-11T11:50:23;23.70;;;16.67;;
8564;SDS011;4320;51.498;6.556;2024-01-11T11:52:53;23.92;;;16.40;;
8564;SDS011;4320;51.498;6.556;2024-01-11T11:55:23;25.50;;;16.02;;
8564;SDS011;4320;51.498;6.556;2024-01-11T11:57:50;27.38;;;16.60;;
8564;SDS011;4320;51.498;6.556;2024-01-11T12:00:17;24.30;;;16.42;;
8564;SDS011;4320;51.498;6.556;2024-01-11T12:02:43;25.05;;;15.77;;
8564;SDS011;4320;51.498;6.556;2024-01-11T12:05:09;23.52;;;15.35;;
8564;SDS011;4320;51.498;6.556;2024-01-11T12:07:34;22.15;;;14.82;;
8564;SDS011;4320;51.498;6.556;2024-01-11T12:10:00;25.10;;;15.75;;
8564;SDS011;4320;51.498;6.556;2024-01-11T12:12:26;30.85;;;19.20;;
8564;SDS011;4320;51.498;6.556;2024-01-11T12:14:53;25.75;;;17.10;;
8564;SDS011;4320;51.498;6.556;2024-01-11T12:17:18;26.13;;;15.82;;
8564;SDS011;4320;51.498;6.556;2024-01-11T12:19:44;22.80;;;15.73;;
8564;SDS011;4320;51.498;6.556;2024-01-11T12:22:09;28.60;;;17.88;;
8564;SDS011;4320;51.498;6.556;2024-01-11T12:24:35;32.60;;;15.95;;
8564;SDS011;4320;51.498;6.556;2024-01-11T12:27:01;27.83;;;16.15;;
8564;SDS011;4320;51.498;6.556;2024-01-11T12:29:30;30.88;;;18.58;;
8564;SDS011;4320;51.498;6.556;2024-01-11T12:31:59;26.27;;;16.05;;
8564;SDS011;4320;51.498;6.556;2024-01-11T12:34:28;38.87;;;21.40;;
8564;SDS011;4320;51.498;6.556;2024-01-11T12:36:54;34.45;;;17.42;;
8564;SDS011;4320;51.498;6.556;2024-01-11T12:39:20;36.85;;;21.98;;
8564;SDS011;4320;51.498;6.556;2024-01-11T12:41:49;32.72;;;20.48;;
8564;SDS011;4320;51.498;6.556;2024-01-11T12:44:19;34.10;;;18.23;;
8564;SDS011;4320;51.498;6.556;2024-01-11T12:46:47;33.63;;;17.53;;
8564;SDS011;4320;51.498;6.556;2024-01-11T12:49:13;24.93;;;15.77;;
8564;SDS011;4320;51.498;6.556;2024-01-11T12:51:40;27.87;;;17.13;;
8564;SDS011;4320;51.498;6.556;2024-01-11T12:54:08;27.37;;;16.90;;
8564;SDS011;4320;51.498;6.556;2024-01-11T12:56:40;27.15;;;16.15;;
8564;SDS011;4320;51.498;6.556;2024-01-11T12:59:07;23.43;;;14.83;;
8564;SDS011;4320;51.498;6.556;2024-01-11T13:01:33;26.60;;;15.83;;
8564;SDS011;4320;51.498;6.556;2024-01-11T13:03:59;24.37;;;15.13;;
8564;SDS011;4320;51.498;6.556;2024-01-11T13:06:27;26.50;;;14.77;;
8564;SDS011;4320;51.498;6.556;2024-01-11T13:08:55;23.40;;;14.87;;
8564;SDS011;4320;51.498;6.556;2024-01-11T13:11:20;27.53;;;14.90;;
8564;SDS011;4320;51.498;6.556;2024-01-11T13:13:46;28.33;;;16.23;;
8564;SDS011;4320;51.498;6.556;2024-01-11T13:16:12;30.70;;;18.00;;
8564;SDS011;4320;51.498;6.556;2024-01-11T13:18:39;27.87;;;15.80;;
8564;SDS011;4320;51.498;6.556;2024-01-11T13:21:05;30.23;;;16.53;;
8564;SDS011;4320;51.498;6.556;2024-01-11T13:23:34;27.07;;;14.93;;
8564;SDS011;4320;51.498;6.556;2024-01-11T13:26:02;27.83;;;16.57;;
8564;SDS011;4320;51.498;6.556;2024-01-11T13:28:29;29.20;;;17.93;;
8564;SDS011;4320;51.498;6.556;2024-01-11T13:30:55;29.30;;;17.80;;
8564;SDS011;4320;51.498;6.556;2024-01-11T13:33:21;29.87;;;17.73;;
8564;SDS011;4320;51.498;6.556;2024-01-11T13:35:48;29.53;;;16.97;;
8564;SDS011;4320;51.498;6.556;2024-01-11T13:38:14;32.27;;;16.87;;
8564;SDS011;4320;51.498;6.556;2024-01-11T13:40:40;25.23;;;15.17;;
8564;SDS011;4320;51.498;6.556;2024-01-11T13:43:08;26.47;;;16.23;;
8564;SDS011;4320;51.498;6.556;2024-01-11T13:45:34;25.03;;;14.83;;
8564;SDS011;4320;51.498;6.556;2024-01-11T13:48:04;26.90;;;14.10;;
8564;SDS011;4320;51.498;6.556;2024-01-11T13:50:30;21.70;;;14.20;;
8564;SDS011;4320;51.498;6.556;2024-01-11T13:52:57;22.97;;;13.87;;
8564;SDS011;4320;51.498;6.556;2024-01-11T13:55:22;20.50;;;13.63;;
8564;SDS011;4320;51.498;6.556;2024-01-11T13:57:51;19.67;;;13.30;;
8564;SDS011;4320;51.498;6.556;2024-01-11T14:00:18;24.33;;;14.87;;
8564;SDS011;4320;51.498;6.556;2024-01-11T14:02:44;24.13;;;13.97;;
8564;SDS011;4320;51.498;6.556;2024-01-11T14:05:11;24.07;;;13.77;;
8564;SDS011;4320;51.498;6.556;2024-01-11T14:07:39;23.23;;;13.37;;
8564;SDS011;4320;51.498;6.556;2024-01-11T14:10:05;19.90;;;13.77;;
8564;SDS011;4320;51.498;6.556;2024-01-11T14:12:33;23.27;;;13.80;;
8564;SDS011;4320;51.498;6.556;2024-01-11T14:14:59;22.97;;;13.90;;
8564;SDS011;4320;51.498;6.556;2024-01-11T14:17:26;25.87;;;14.70;;
8564;SDS011;4320;51.498;6.556;2024-01-11T14:19:51;21.47;;;13.87;;
8564;SDS011;4320;51.498;6.556;2024-01-11T14:22:17;22.10;;;13.17;;
8564;SDS011;4320;51.498;6.556;2024-01-11T14:24:43;17.57;;;12.30;;
8564;SDS011;4320;51.498;6.556;2024-01-11T14:27:08;20.63;;;13.23;;
8564;SDS011;4320;51.498;6.556;2024-01-11T14:29:34;19.60;;;12.43;;
8564;SDS011;4320;51.498;6.556;2024-01-11T14:32:00;23.67;;;12.90;;
8564;SDS011;4320;51.498;6.556;2024-01-11T14:34:26;22.70;;;13.63;;
8564;SDS011;4320;51.498;6.556;2024-01-11T14:36:51;19.03;;;13.37;;
8564;SDS011;4320;51.498;6.556;2024-01-11T14:39:17;20.83;;;11.83;;
8564;SDS011;4320;51.498;6.556;2024-01-11T14:41:42;15.80;;;10.07;;
8564;SDS011;4320;51.498;6.556;2024-01-11T14:44:08;17.03;;;10.10;;
8564;SDS011;4320;51.498;6.556;2024-01-11T14:46:35;13.47;;;9.40;;
8564;SDS011;4320;51.498;6.556;2024-01-11T14:49:01;13.03;;;8.10;;
8564;SDS011;4320;51.498;6.556;2024-01-11T14:51:29;15.53;;;9.07;;